sensor_id;sensor_type;location;lat;lon;timestamp;P1;durP1;ratioP1;P2;durP2;ratioP2
16660;SDS011;8444;52.012;5.048;2022-07-03T00:00:09;6.35;;;3.50;;
16660;SDS011;8444;52.012;5.048;2022-07-03T00:02:34;5.07;;;3.60;;
16660;SDS011;8444;52.012;5.048;2022-07-03T00:04:59;3.67;;;3.38;;
16660;SDS011;8444;52.012;5.048;2022-07-03T00:07:24;5.50;;;3.22;;
16660;SDS011;8444;52.012;5.048;2022-07-03T00:09:50;4.35;;;3.85;;
16660;SDS011;8444;52.012;5.048;2022-07-03T00:12:15;6.47;;;3.78;;
16660;SDS011;8444;52.012;5.048;2022-07-03T00:14:40;4.50;;;4.10;;
16660;SDS011;8444;52.012;5.048;2022-07-03T00:17:05;4.40;;;4.00;;
16660;SDS011;8444;52.012;5.048;2022-07-03T00:19:31;5.35;;;3.97;;
16660;SDS011;8444;52.012;5.048;2022-07-03T00:21:56;4.75;;;4.28;;
16660;SDS011;8444;52.012;5.048;2022-07-03T00:24:26;5.13;;;3.92;;
16660;SDS011;8444;52.012;5.048;2022-07-03T00:26:53;5.53;;;3.95;;
16660;SDS011;8444;52.012;5.048;2022-07-03T00:29:20;4.55;;;3.85;;
16660;SDS011;8444;52.012;5.048;2022-07-03T00:31:46;4.45;;;3.92;;
16660;SDS011;8444;52.012;5.048;2022-07-03T00:34:11;6.15;;;4.10;;
16660;SDS011;8444;52.012;5.048;2022-07-03T00:36:39;7.85;;;5.70;;
16660;SDS011;8444;52.012;5.048;2022-07-03T00:39:05;5.03;;;3.78;;
16660;SDS011;8444;52.012;5.048;2022-07-03T00:41:31;5.00;;;4.05;;
16660;SDS011;8444;52.012;5.048;2022-07-03T00:43:57;4.55;;;3.72;;
16660;SDS011;8444;52.012;5.048;2022-07-03T00:46:23;6.85;;;4.43;;
16660;SDS011;8444;52.012;5.048;2022-07-03T00:48:49;4.97;;;3.72;;
16660;SDS011;8444;52.012;5.048;2022-07-03T00:51:15;8.13;;;4.30;;
16660;SDS011;8444;52.012;5.048;2022-07-03T00:53:42;5.38;;;3.92;;
16660;SDS011;8444;52.012;5.048;2022-07-03T00:56:10;4.70;;;4.07;;
16660;SDS011;8444;52.012;5.048;2022-07-03T00:58:38;5.07;;;3.70;;
16660;SDS011;8444;52.012;5.048;2022-07-03T01:01:03;4.97;;;4.35;;
16660;SDS011;8444;52.012;5.048;2022-07-03T01:03:28;6.13;;;4.10;;
16660;SDS011;8444;52.012;5.048;2022-07-03T01:05:56;6.45;;;4.13;;
16660;SDS011;8444;52.012;5.048;2022-07-03T01:11:02;3.92;;;3.30;;
16660;SDS011;8444;52.012;5.048;2022-07-03T01:13:37;6.43;;;4.03;;
16660;SDS011;8444;52.012;5.048;2022-07-03T01:26:35;3.92;;;3.17;;
16660;SDS011;8444;52.012;5.048;2022-07-03T01:29:07;5.43;;;3.20;;
16660;SDS011;8444;52.012;5.048;2022-07-03T01:31:32;4.85;;;4.15;;
16660;SDS011;8444;52.012;5.048;2022-07-03T01:33:58;6.35;;;4.93;;
16660;SDS011;8444;52.012;5.048;2022-07-03T01:36:23;5.50;;;4.35;;
16660;SDS011;8444;52.012;5.048;2022-07-03T01:38:50;3.55;;;3.25;;
16660;SDS011;8444;52.012;5.048;2022-07-03T01:41:15;4.05;;;3.65;;
16660;SDS011;8444;52.012;5.048;2022-07-03T01:43:47;10.18;;;6.65;;
16660;SDS011;8444;52.012;5.048;2022-07-03T01:46:13;5.72;;;4.53;;
16660;SDS011;8444;52.012;5.048;2022-07-03T01:48:41;4.97;;;4.47;;
16660;SDS011;8444;52.012;5.048;2022-07-03T01:51:06;7.20;;;4.85;;
16660;SDS011;8444;52.012;5.048;2022-07-03T01:53:33;5.88;;;5.13;;
16660;SDS011;8444;52.012;5.048;2022-07-03T01:55:59;6.63;;;4.43;;
16660;SDS011;8444;52.012;5.048;2022-07-03T01:58:24;6.50;;;4.38;;
16660;SDS011;8444;52.012;5.048;2022-07-03T02:03:19;6.03;;;4.67;;
16660;SDS011;8444;52.012;5.048;2022-07-03T02:05:47;5.53;;;4.88;;
16660;SDS011;8444;52.012;5.048;2022-07-03T02:08:23;7.93;;;5.50;;
16660;SDS011;8444;52.012;5.048;2022-07-03T02:11:08;7.13;;;5.90;;
16660;SDS011;8444;52.012;5.048;2022-07-03T02:13:37;6.75;;;6.05;;
16660;SDS011;8444;52.012;5.048;2022-07-03T02:16:03;6.18;;;5.05;;
16660;SDS011;8444;52.012;5.048;2022-07-03T02:18:29;6.55;;;5.40;;
16660;SDS011;8444;52.012;5.048;2022-07-03T02:21:05;5.93;;;5.30;;
16660;SDS011;8444;52.012;5.048;2022-07-03T02:23:32;7.13;;;5.35;;
16660;SDS011;8444;52.012;5.048;2022-07-03T02:26:02;5.13;;;4.63;;
16660;SDS011;8444;52.012;5.048;2022-07-03T02:31:26;4.25;;;3.90;;
16660;SDS011;8444;52.012;5.048;2022-07-03T02:33:55;5.32;;;4.13;;
16660;SDS011;8444;52.012;5.048;2022-07-03T02:36:21;5.20;;;3.88;;
16660;SDS011;8444;52.012;5.048;2022-07-03T02:38:46;5.25;;;3.90;;
16660;SDS011;8444;52.012;5.048;2022-07-03T02:41:39;4.32;;;3.60;;
16660;SDS011;8444;52.012;5.048;2022-07-03T02:44:02;5.65;;;3.92;;
16660;SDS011;8444;52.012;5.048;2022-07-03T02:46:31;5.28;;;3.60;;
16660;SDS011;8444;52.012;5.048;2022-07-03T02:51:40;5.83;;;3.20;;
16660;SDS011;8444;52.012;5.048;2022-07-03T02:54:09;5.72;;;3.05;;
16660;SDS011;8444;52.012;5.048;2022-07-03T02:59:31;3.60;;;2.83;;
16660;SDS011;8444;52.012;5.048;2022-07-03T03:02:06;5.30;;;2.70;;
16660;SDS011;8444;52.012;5.048;2022-07-03T03:04:32;4.32;;;3.17;;
16660;SDS011;8444;52.012;5.048;2022-07-03T03:07:02;2.42;;;2.13;;
16660;SDS011;8444;52.012;5.048;2022-07-03T03:09:34;3.75;;;2.97;;
16660;SDS011;8444;52.012;5.048;2022-07-03T03:12:04;2.63;;;2.35;;
16660;SDS011;8444;52.012;5.048;2022-07-03T03:14:37;2.72;;;2.53;;
16660;SDS011;8444;52.012;5.048;2022-07-03T03:17:04;2.88;;;2.53;;
16660;SDS011;8444;52.012;5.048;2022-07-03T03:19:30;5.15;;;3.22;;
16660;SDS011;8444;52.012;5.048;2022-07-03T03:24:43;4.15;;;2.83;;
16660;SDS011;8444;52.012;5.048;2022-07-03T03:27:09;3.97;;;3.30;;
16660;SDS011;8444;52.012;5.048;2022-07-03T03:29:34;3.50;;;2.90;;
16660;SDS011;8444;52.012;5.048;2022-07-03T03:31:59;2.67;;;2.47;;
16660;SDS011;8444;52.012;5.048;2022-07-03T03:34:24;3.58;;;2.72;;
16660;SDS011;8444;52.012;5.048;2022-07-03T03:36:51;2.92;;;2.58;;
16660;SDS011;8444;52.012;5.048;2022-07-03T03:39:16;2.35;;;1.92;;
16660;SDS011;8444;52.012;5.048;2022-07-03T03:41:41;3.58;;;2.75;;
16660;SDS011;8444;52.012;5.048;2022-07-03T03:44:06;5.95;;;2.60;;
16660;SDS011;8444;52.012;5.048;2022-07-03T03:46:32;10.57;;;3.35;;
16660;SDS011;8444;52.012;5.048;2022-07-03T03:48:57;4.40;;;2.42;;
16660;SDS011;8444;52.012;5.048;2022-07-03T03:51:22;2.75;;;2.25;;
16660;SDS011;8444;52.012;5.048;2022-07-03T03:53:48;4.93;;;2.50;;
16660;SDS011;8444;52.012;5.048;2022-07-03T03:56:13;2.45;;;2.25;;
16660;SDS011;8444;52.012;5.048;2022-07-03T03:58:42;5.20;;;2.42;;
16660;SDS011;8444;52.012;5.048;2022-07-03T04:01:08;3.15;;;1.75;;
16660;SDS011;8444;52.012;5.048;2022-07-03T04:03:34;4.38;;;2.20;;
16660;SDS011;8444;52.012;5.048;2022-07-03T04:05:59;3.42;;;2.25;;
16660;SDS011;8444;52.012;5.048;2022-07-03T04:08:25;3.85;;;2.42;;
16660;SDS011;8444;52.012;5.048;2022-07-03T04:10:50;2.20;;;2.00;;
16660;SDS011;8444;52.012;5.048;2022-07-03T04:13:16;4.75;;;2.42;;
16660;SDS011;8444;52.012;5.048;2022-07-03T04:15:41;2.90;;;1.90;;
16660;SDS011;8444;52.012;5.048;2022-07-03T04:18:06;2.92;;;2.05;;
16660;SDS011;8444;52.012;5.048;2022-07-03T04:20:32;3.75;;;1.92;;
16660;SDS011;8444;52.012;5.048;2022-07-03T04:22:57;2.38;;;1.92;;
16660;SDS011;8444;52.012;5.048;2022-07-03T04:25:22;4.65;;;2.45;;
16660;SDS011;8444;52.012;5.048;2022-07-03T04:27:48;3.45;;;2.03;;
16660;SDS011;8444;52.012;5.048;2022-07-03T04:30:13;5.75;;;2.60;;
16660;SDS011;8444;52.012;5.048;2022-07-03T04:32:38;3.85;;;1.50;;
16660;SDS011;8444;52.012;5.048;2022-07-03T04:35:04;2.97;;;1.77;;
16660;SDS011;8444;52.012;5.048;2022-07-03T04:37:29;3.97;;;1.65;;
16660;SDS011;8444;52.012;5.048;2022-07-03T04:39:54;4.10;;;1.45;;
16660;SDS011;8444;52.012;5.048;2022-07-03T04:42:19;3.38;;;1.70;;
16660;SDS011;8444;52.012;5.048;2022-07-03T04:44:44;5.07;;;1.58;;
16660;SDS011;8444;52.012;5.048;2022-07-03T04:47:10;4.22;;;1.52;;
16660;SDS011;8444;52.012;5.048;2022-07-03T04:49:35;2.05;;;1.40;;
16660;SDS011;8444;52.012;5.048;2022-07-03T04:52:00;5.03;;;1.92;;
16660;SDS011;8444;52.012;5.048;2022-07-03T04:54:25;4.03;;;1.75;;
16660;SDS011;8444;52.012;5.048;2022-07-03T04:56:51;4.50;;;1.52;;
16660;SDS011;8444;52.012;5.048;2022-07-03T04:59:16;4.85;;;1.48;;
16660;SDS011;8444;52.012;5.048;2022-07-03T05:01:41;2.90;;;1.50;;
16660;SDS011;8444;52.012;5.048;2022-07-03T05:04:06;3.83;;;1.77;;
16660;SDS011;8444;52.012;5.048;2022-07-03T05:06:31;5.28;;;1.92;;
16660;SDS011;8444;52.012;5.048;2022-07-03T05:08:57;6.30;;;1.88;;
16660;SDS011;8444;52.012;5.048;2022-07-03T05:11:22;3.67;;;1.63;;
16660;SDS011;8444;52.012;5.048;2022-07-03T05:13:47;3.30;;;1.40;;
16660;SDS011;8444;52.012;5.048;2022-07-03T05:16:12;4.35;;;1.33;;
16660;SDS011;8444;52.012;5.048;2022-07-03T05:18:37;7.93;;;1.92;;
16660;SDS011;8444;52.012;5.048;2022-07-03T05:21:03;2.53;;;1.38;;
16660;SDS011;8444;52.012;5.048;2022-07-03T05:23:28;3.95;;;1.90;;
16660;SDS011;8444;52.012;5.048;2022-07-03T05:25:53;4.28;;;1.40;;
16660;SDS011;8444;52.012;5.048;2022-07-03T05:28:20;3.17;;;1.30;;
16660;SDS011;8444;52.012;5.048;2022-07-03T05:30:45;5.28;;;1.20;;
16660;SDS011;8444;52.012;5.048;2022-07-03T05:33:10;6.22;;;1.58;;
16660;SDS011;8444;52.012;5.048;2022-07-03T05:35:36;3.00;;;1.17;;
16660;SDS011;8444;52.012;5.048;2022-07-03T05:38:01;3.60;;;1.50;;
16660;SDS011;8444;52.012;5.048;2022-07-03T05:40:26;4.55;;;1.50;;
16660;SDS011;8444;52.012;5.048;2022-07-03T05:42:51;4.72;;;1.45;;
16660;SDS011;8444;52.012;5.048;2022-07-03T05:45:18;4.85;;;1.70;;
16660;SDS011;8444;52.012;5.048;2022-07-03T05:47:43;7.47;;;1.60;;
16660;SDS011;8444;52.012;5.048;2022-07-03T05:50:08;4.38;;;1.65;;
16660;SDS011;8444;52.012;5.048;2022-07-03T05:52:34;1.85;;;1.10;;
16660;SDS011;8444;52.012;5.048;2022-07-03T05:54:59;3.15;;;1.20;;
16660;SDS011;8444;52.012;5.048;2022-07-03T05:57:24;2.43;;;1.27;;
16660;SDS011;8444;52.012;5.048;2022-07-03T05:59:49;3.75;;;1.40;;
16660;SDS011;8444;52.012;5.048;2022-07-03T06:02:15;6.05;;;1.42;;
16660;SDS011;8444;52.012;5.048;2022-07-03T06:04:40;6.85;;;1.80;;
16660;SDS011;8444;52.012;5.048;2022-07-03T06:07:05;4.30;;;1.40;;
16660;SDS011;8444;52.012;5.048;2022-07-03T06:09:30;4.25;;;1.40;;
16660;SDS011;8444;52.012;5.048;2022-07-03T06:11:55;7.78;;;1.80;;
16660;SDS011;8444;52.012;5.048;2022-07-03T06:14:21;8.60;;;1.80;;
16660;SDS011;8444;52.012;5.048;2022-07-03T06:16:46;5.27;;;1.17;;
16660;SDS011;8444;52.012;5.048;2022-07-03T06:19:11;5.15;;;1.40;;
16660;SDS011;8444;52.012;5.048;2022-07-03T06:21:36;4.47;;;1.40;;
16660;SDS011;8444;52.012;5.048;2022-07-03T06:24:01;3.35;;;1.50;;
16660;SDS011;8444;52.012;5.048;2022-07-03T06:26:26;5.07;;;1.42;;
16660;SDS011;8444;52.012;5.048;2022-07-03T06:28:54;6.70;;;2.00;;
16660;SDS011;8444;52.012;5.048;2022-07-03T06:31:19;3.47;;;1.30;;
16660;SDS011;8444;52.012;5.048;2022-07-03T06:33:44;6.25;;;1.58;;
16660;SDS011;8444;52.012;5.048;2022-07-03T06:36:09;6.00;;;1.40;;
16660;SDS011;8444;52.012;5.048;2022-07-03T06:38:34;3.42;;;1.20;;
16660;SDS011;8444;52.012;5.048;2022-07-03T06:41:00;4.57;;;1.52;;
16660;SDS011;8444;52.012;5.048;2022-07-03T06:43:25;5.75;;;1.60;;
16660;SDS011;8444;52.012;5.048;2022-07-03T06:45:50;6.03;;;1.63;;
16660;SDS011;8444;52.012;5.048;2022-07-03T06:48:15;5.75;;;1.30;;
16660;SDS011;8444;52.012;5.048;2022-07-03T06:50:41;8.07;;;1.58;;
16660;SDS011;8444;52.012;5.048;2022-07-03T06:53:06;5.72;;;1.60;;
16660;SDS011;8444;52.012;5.048;2022-07-03T06:55:31;7.40;;;1.77;;
16660;SDS011;8444;52.012;5.048;2022-07-03T06:57:56;3.67;;;1.60;;
16660;SDS011;8444;52.012;5.048;2022-07-03T07:00:21;3.37;;;1.60;;
16660;SDS011;8444;52.012;5.048;2022-07-03T07:02:47;9.63;;;1.73;;
16660;SDS011;8444;52.012;5.048;2022-07-03T07:05:12;7.38;;;1.77;;
16660;SDS011;8444;52.012;5.048;2022-07-03T07:07:37;6.10;;;1.52;;
16660;SDS011;8444;52.012;5.048;2022-07-03T07:10:02;4.03;;;1.70;;
16660;SDS011;8444;52.012;5.048;2022-07-03T07:12:28;4.70;;;2.13;;
16660;SDS011;8444;52.012;5.048;2022-07-03T07:14:53;5.07;;;1.45;;
16660;SDS011;8444;52.012;5.048;2022-07-03T07:17:18;5.07;;;1.52;;
16660;SDS011;8444;52.012;5.048;2022-07-03T07:19:43;9.00;;;1.52;;
16660;SDS011;8444;52.012;5.048;2022-07-03T07:22:09;2.35;;;1.30;;
16660;SDS011;8444;52.012;5.048;2022-07-03T07:24:34;5.70;;;1.63;;
16660;SDS011;8444;52.012;5.048;2022-07-03T07:26:59;4.85;;;1.48;;
16660;SDS011;8444;52.012;5.048;2022-07-03T07:29:24;7.00;;;1.80;;
16660;SDS011;8444;52.012;5.048;2022-07-03T07:31:50;3.83;;;1.37;;
16660;SDS011;8444;52.012;5.048;2022-07-03T07:34:15;3.10;;;1.30;;
16660;SDS011;8444;52.012;5.048;2022-07-03T07:36:40;4.63;;;1.70;;
16660;SDS011;8444;52.012;5.048;2022-07-03T07:39:05;5.82;;;1.90;;
16660;SDS011;8444;52.012;5.048;2022-07-03T07:41:30;3.97;;;1.43;;
16660;SDS011;8444;52.012;5.048;2022-07-03T07:43:56;4.20;;;1.95;;
16660;SDS011;8444;52.012;5.048;2022-07-03T07:46:21;3.30;;;1.45;;
16660;SDS011;8444;52.012;5.048;2022-07-03T07:48:46;4.60;;;1.93;;
16660;SDS011;8444;52.012;5.048;2022-07-03T07:51:11;6.03;;;2.03;;
16660;SDS011;8444;52.012;5.048;2022-07-03T07:53:36;4.55;;;1.63;;
16660;SDS011;8444;52.012;5.048;2022-07-03T07:56:02;3.05;;;1.23;;
16660;SDS011;8444;52.012;5.048;2022-07-03T07:58:27;3.88;;;0.95;;
16660;SDS011;8444;52.012;5.048;2022-07-03T08:00:52;5.95;;;1.33;;
16660;SDS011;8444;52.012;5.048;2022-07-03T08:03:36;3.17;;;1.40;;
16660;SDS011;8444;52.012;5.048;2022-07-03T08:06:20;4.20;;;1.13;;
16660;SDS011;8444;52.012;5.048;2022-07-03T08:08:45;3.08;;;1.40;;
16660;SDS011;8444;52.012;5.048;2022-07-03T08:11:11;0.95;;;0.82;;
16660;SDS011;8444;52.012;5.048;2022-07-03T08:13:36;4.87;;;1.33;;
16660;SDS011;8444;52.012;5.048;2022-07-03T08:16:01;4.18;;;1.15;;
16660;SDS011;8444;52.012;5.048;2022-07-03T08:18:26;4.88;;;1.60;;
16660;SDS011;8444;52.012;5.048;2022-07-03T08:20:52;3.65;;;1.10;;
16660;SDS011;8444;52.012;5.048;2022-07-03T08:23:17;3.42;;;1.25;;
16660;SDS011;8444;52.012;5.048;2022-07-03T08:25:42;4.40;;;1.10;;
16660;SDS011;8444;52.012;5.048;2022-07-03T08:28:07;3.93;;;1.33;;
16660;SDS011;8444;52.012;5.048;2022-07-03T08:30:33;5.00;;;1.33;;
16660;SDS011;8444;52.012;5.048;2022-07-03T08:32:58;1.52;;;1.13;;
16660;SDS011;8444;52.012;5.048;2022-07-03T08:35:23;2.50;;;1.20;;
16660;SDS011;8444;52.012;5.048;2022-07-03T08:37:48;4.82;;;1.17;;
16660;SDS011;8444;52.012;5.048;2022-07-03T08:40:14;4.30;;;2.08;;
16660;SDS011;8444;52.012;5.048;2022-07-03T08:42:46;3.40;;;0.93;;
16660;SDS011;8444;52.012;5.048;2022-07-03T08:45:15;2.75;;;1.25;;
16660;SDS011;8444;52.012;5.048;2022-07-03T08:47:41;3.72;;;1.48;;
16660;SDS011;8444;52.012;5.048;2022-07-03T08:50:07;3.40;;;1.10;;
16660;SDS011;8444;52.012;5.048;2022-07-03T08:52:33;3.50;;;1.20;;
16660;SDS011;8444;52.012;5.048;2022-07-03T08:54:58;3.22;;;1.00;;
16660;SDS011;8444;52.012;5.048;2022-07-03T08:57:24;4.27;;;1.43;;
16660;SDS011;8444;52.012;5.048;2022-07-03T08:59:50;3.92;;;1.10;;
16660;SDS011;8444;52.012;5.048;2022-07-03T09:02:16;3.13;;;1.08;;
16660;SDS011;8444;52.012;5.048;2022-07-03T09:04:42;5.30;;;1.55;;
16660;SDS011;8444;52.012;5.048;2022-07-03T09:07:07;2.75;;;1.30;;
16660;SDS011;8444;52.012;5.048;2022-07-03T09:09:33;2.42;;;1.05;;
16660;SDS011;8444;52.012;5.048;2022-07-03T09:11:58;2.70;;;1.48;;
16660;SDS011;8444;52.012;5.048;2022-07-03T09:14:24;5.10;;;1.40;;
16660;SDS011;8444;52.012;5.048;2022-07-03T09:16:49;3.97;;;1.30;;
16660;SDS011;8444;52.012;5.048;2022-07-03T09:19:14;3.53;;;1.30;;
16660;SDS011;8444;52.012;5.048;2022-07-03T09:21:40;2.77;;;1.13;;
16660;SDS011;8444;52.012;5.048;2022-07-03T09:24:06;2.13;;;1.00;;
16660;SDS011;8444;52.012;5.048;2022-07-03T09:26:32;5.05;;;1.45;;
16660;SDS011;8444;52.012;5.048;2022-07-03T09:28:57;2.80;;;1.10;;
16660;SDS011;8444;52.012;5.048;2022-07-03T09:31:24;2.17;;;1.05;;
16660;SDS011;8444;52.012;5.048;2022-07-03T09:36:14;3.77;;;1.33;;
16660;SDS011;8444;52.012;5.048;2022-07-03T09:38:43;3.60;;;1.40;;
16660;SDS011;8444;52.012;5.048;2022-07-03T09:41:09;2.22;;;1.08;;
16660;SDS011;8444;52.012;5.048;2022-07-03T09:43:34;3.80;;;1.00;;
16660;SDS011;8444;52.012;5.048;2022-07-03T09:46:00;2.40;;;0.80;;
16660;SDS011;8444;52.012;5.048;2022-07-03T09:53:47;4.07;;;1.00;;
16660;SDS011;8444;52.012;5.048;2022-07-03T09:56:12;2.10;;;1.10;;
16660;SDS011;8444;52.012;5.048;2022-07-03T09:58:38;4.90;;;1.00;;
16660;SDS011;8444;52.012;5.048;2022-07-03T10:01:18;5.03;;;1.38;;
16660;SDS011;8444;52.012;5.048;2022-07-03T10:03:44;1.70;;;0.60;;
16660;SDS011;8444;52.012;5.048;2022-07-03T10:06:09;2.87;;;1.50;;
16660;SDS011;8444;52.012;5.048;2022-07-03T10:08:34;2.08;;;0.75;;
16660;SDS011;8444;52.012;5.048;2022-07-03T10:10:59;3.00;;;0.85;;
16660;SDS011;8444;52.012;5.048;2022-07-03T10:13:25;1.80;;;0.80;;
16660;SDS011;8444;52.012;5.048;2022-07-03T10:15:50;2.80;;;0.90;;
16660;SDS011;8444;52.012;5.048;2022-07-03T10:18:16;2.80;;;0.90;;
16660;SDS011;8444;52.012;5.048;2022-07-03T10:20:47;2.78;;;0.93;;
16660;SDS011;8444;52.012;5.048;2022-07-03T10:23:12;4.60;;;1.13;;
16660;SDS011;8444;52.012;5.048;2022-07-03T10:25:42;3.22;;;1.00;;
16660;SDS011;8444;52.012;5.048;2022-07-03T10:28:07;2.65;;;1.15;;
16660;SDS011;8444;52.012;5.048;2022-07-03T10:30:33;4.18;;;1.02;;
16660;SDS011;8444;52.012;5.048;2022-07-03T10:32:59;3.75;;;1.38;;
16660;SDS011;8444;52.012;5.048;2022-07-03T10:35:25;4.43;;;2.00;;
16660;SDS011;8444;52.012;5.048;2022-07-03T10:40:31;5.50;;;1.58;;
16660;SDS011;8444;52.012;5.048;2022-07-03T10:43:21;3.30;;;1.73;;
16660;SDS011;8444;52.012;5.048;2022-07-03T10:46:08;2.13;;;1.48;;
16660;SDS011;8444;52.012;5.048;2022-07-03T10:51:17;3.75;;;1.58;;
16660;SDS011;8444;52.012;5.048;2022-07-03T10:53:42;4.17;;;2.17;;
16660;SDS011;8444;52.012;5.048;2022-07-03T10:56:07;3.15;;;1.70;;
16660;SDS011;8444;52.012;5.048;2022-07-03T10:58:32;3.08;;;1.10;;
16660;SDS011;8444;52.012;5.048;2022-07-03T11:01:25;2.60;;;1.60;;
16660;SDS011;8444;52.012;5.048;2022-07-03T11:03:51;3.70;;;1.10;;
16660;SDS011;8444;52.012;5.048;2022-07-03T11:06:18;3.78;;;1.52;;
16660;SDS011;8444;52.012;5.048;2022-07-03T11:09:00;2.33;;;1.20;;
16660;SDS011;8444;52.012;5.048;2022-07-03T11:11:45;4.13;;;1.55;;
16660;SDS011;8444;52.012;5.048;2022-07-03T11:14:19;2.38;;;1.27;;
16660;SDS011;8444;52.012;5.048;2022-07-03T11:16:45;3.00;;;1.92;;
16660;SDS011;8444;52.012;5.048;2022-07-03T11:19:11;3.70;;;1.30;;
16660;SDS011;8444;52.012;5.048;2022-07-03T11:21:36;3.78;;;1.30;;
16660;SDS011;8444;52.012;5.048;2022-07-03T11:26:34;4.93;;;1.40;;
16660;SDS011;8444;52.012;5.048;2022-07-03T11:29:00;4.95;;;1.40;;
16660;SDS011;8444;52.012;5.048;2022-07-03T11:31:25;2.63;;;1.10;;
16660;SDS011;8444;52.012;5.048;2022-07-03T11:38:41;2.07;;;0.90;;
16660;SDS011;8444;52.012;5.048;2022-07-03T11:41:07;1.30;;;0.60;;
16660;SDS011;8444;52.012;5.048;2022-07-03T11:43:33;2.20;;;0.60;;
16660;SDS011;8444;52.012;5.048;2022-07-03T11:45:59;2.92;;;0.40;;
16660;SDS011;8444;52.012;5.048;2022-07-03T11:48:25;1.33;;;0.55;;
16660;SDS011;8444;52.012;5.048;2022-07-03T11:50:51;2.83;;;1.73;;
16660;SDS011;8444;52.012;5.048;2022-07-03T11:53:17;4.57;;;1.70;;
16660;SDS011;8444;52.012;5.048;2022-07-03T11:55:50;3.25;;;1.50;;
16660;SDS011;8444;52.012;5.048;2022-07-03T11:58:15;3.10;;;1.40;;
16660;SDS011;8444;52.012;5.048;2022-07-03T12:00:40;4.30;;;2.13;;
16660;SDS011;8444;52.012;5.048;2022-07-03T12:03:05;4.75;;;1.95;;
16660;SDS011;8444;52.012;5.048;2022-07-03T12:05:32;2.72;;;1.40;;
16660;SDS011;8444;52.012;5.048;2022-07-03T12:08:06;1.73;;;1.10;;
16660;SDS011;8444;52.012;5.048;2022-07-03T12:10:40;2.08;;;1.02;;
16660;SDS011;8444;52.012;5.048;2022-07-03T12:13:21;2.15;;;1.00;;
16660;SDS011;8444;52.012;5.048;2022-07-03T12:15:46;2.20;;;0.85;;
16660;SDS011;8444;52.012;5.048;2022-07-03T12:18:11;1.33;;;0.70;;
16660;SDS011;8444;52.012;5.048;2022-07-03T12:20:37;1.98;;;1.10;;
16660;SDS011;8444;52.012;5.048;2022-07-03T12:23:02;1.47;;;0.70;;
16660;SDS011;8444;52.012;5.048;2022-07-03T12:25:29;2.60;;;1.00;;
16660;SDS011;8444;52.012;5.048;2022-07-03T12:27:54;3.53;;;1.45;;
16660;SDS011;8444;52.012;5.048;2022-07-03T12:30:20;3.23;;;1.23;;
16660;SDS011;8444;52.012;5.048;2022-07-03T12:32:47;2.40;;;1.40;;
16660;SDS011;8444;52.012;5.048;2022-07-03T12:35:12;3.45;;;1.27;;
16660;SDS011;8444;52.012;5.048;2022-07-03T12:37:38;3.67;;;1.20;;
16660;SDS011;8444;52.012;5.048;2022-07-03T12:40:09;2.70;;;1.38;;
16660;SDS011;8444;52.012;5.048;2022-07-03T12:42:48;2.30;;;1.38;;
16660;SDS011;8444;52.012;5.048;2022-07-03T12:45:14;3.45;;;1.40;;
16660;SDS011;8444;52.012;5.048;2022-07-03T12:47:39;2.28;;;1.20;;
16660;SDS011;8444;52.012;5.048;2022-07-03T12:50:05;2.80;;;1.00;;
16660;SDS011;8444;52.012;5.048;2022-07-03T12:52:31;4.60;;;2.22;;
16660;SDS011;8444;52.012;5.048;2022-07-03T12:54:58;1.73;;;0.98;;
16660;SDS011;8444;52.012;5.048;2022-07-03T12:57:24;2.80;;;1.20;;
16660;SDS011;8444;52.012;5.048;2022-07-03T13:02:37;2.90;;;1.00;;
16660;SDS011;8444;52.012;5.048;2022-07-03T13:05:19;3.65;;;1.15;;
16660;SDS011;8444;52.012;5.048;2022-07-03T13:07:49;4.20;;;1.35;;
16660;SDS011;8444;52.012;5.048;2022-07-03T13:10:14;3.72;;;1.60;;
16660;SDS011;8444;52.012;5.048;2022-07-03T13:15:14;1.48;;;1.00;;
16660;SDS011;8444;52.012;5.048;2022-07-03T13:20:18;2.63;;;1.00;;
16660;SDS011;8444;52.012;5.048;2022-07-03T13:22:43;2.88;;;1.20;;
16660;SDS011;8444;52.012;5.048;2022-07-03T13:25:08;1.77;;;0.97;;
16660;SDS011;8444;52.012;5.048;2022-07-03T13:27:33;2.67;;;1.30;;
16660;SDS011;8444;52.012;5.048;2022-07-03T13:29:58;4.10;;;1.20;;
16660;SDS011;8444;52.012;5.048;2022-07-03T13:32:24;2.17;;;1.10;;
16660;SDS011;8444;52.012;5.048;2022-07-03T13:34:49;2.03;;;1.10;;
16660;SDS011;8444;52.012;5.048;2022-07-03T13:37:14;4.53;;;1.07;;
16660;SDS011;8444;52.012;5.048;2022-07-03T13:39:39;2.47;;;0.73;;
16660;SDS011;8444;52.012;5.048;2022-07-03T13:42:05;4.23;;;1.50;;
16660;SDS011;8444;52.012;5.048;2022-07-03T13:44:30;2.88;;;1.92;;
16660;SDS011;8444;52.012;5.048;2022-07-03T13:46:55;2.55;;;1.92;;
16660;SDS011;8444;52.012;5.048;2022-07-03T13:49:20;4.40;;;3.67;;
16660;SDS011;8444;52.012;5.048;2022-07-03T13:51:46;3.97;;;3.10;;
16660;SDS011;8444;52.012;5.048;2022-07-03T13:54:11;4.03;;;2.65;;
16660;SDS011;8444;52.012;5.048;2022-07-03T13:56:36;7.63;;;4.90;;
16660;SDS011;8444;52.012;5.048;2022-07-03T13:59:01;5.83;;;5.23;;
16660;SDS011;8444;52.012;5.048;2022-07-03T14:01:26;8.20;;;6.70;;
16660;SDS011;8444;52.012;5.048;2022-07-03T14:03:51;2.78;;;1.98;;
16660;SDS011;8444;52.012;5.048;2022-07-03T14:06:17;2.60;;;1.40;;
16660;SDS011;8444;52.012;5.048;2022-07-03T14:08:42;4.55;;;1.67;;
16660;SDS011;8444;52.012;5.048;2022-07-03T14:11:07;3.83;;;1.73;;
16660;SDS011;8444;52.012;5.048;2022-07-03T14:13:32;0.82;;;0.70;;
16660;SDS011;8444;52.012;5.048;2022-07-03T14:15:59;2.83;;;2.15;;
16660;SDS011;8444;52.012;5.048;2022-07-03T14:18:25;4.95;;;3.20;;
16660;SDS011;8444;52.012;5.048;2022-07-03T14:20:50;2.50;;;1.30;;
16660;SDS011;8444;52.012;5.048;2022-07-03T14:23:15;9.90;;;7.40;;
16660;SDS011;8444;52.012;5.048;2022-07-03T14:25:41;3.63;;;1.77;;
16660;SDS011;8444;52.012;5.048;2022-07-03T14:28:06;7.05;;;5.97;;
16660;SDS011;8444;52.012;5.048;2022-07-03T14:30:50;11.43;;;6.63;;
16660;SDS011;8444;52.012;5.048;2022-07-03T14:33:34;4.40;;;3.83;;
16660;SDS011;8444;52.012;5.048;2022-07-03T14:35:59;3.03;;;1.67;;
16660;SDS011;8444;52.012;5.048;2022-07-03T14:38:24;1.90;;;1.50;;
16660;SDS011;8444;52.012;5.048;2022-07-03T14:40:49;1.50;;;1.02;;
16660;SDS011;8444;52.012;5.048;2022-07-03T14:43:16;2.22;;;1.15;;
16660;SDS011;8444;52.012;5.048;2022-07-03T14:45:41;1.37;;;0.90;;
16660;SDS011;8444;52.012;5.048;2022-07-03T14:48:07;2.10;;;0.97;;
16660;SDS011;8444;52.012;5.048;2022-07-03T14:50:32;1.95;;;1.25;;
16660;SDS011;8444;52.012;5.048;2022-07-03T14:52:58;2.65;;;1.00;;
16660;SDS011;8444;52.012;5.048;2022-07-03T14:55:23;2.97;;;1.00;;
16660;SDS011;8444;52.012;5.048;2022-07-03T14:57:52;2.63;;;0.80;;
16660;SDS011;8444;52.012;5.048;2022-07-03T15:00:19;2.15;;;0.90;;
16660;SDS011;8444;52.012;5.048;2022-07-03T15:03:03;3.17;;;0.75;;
16660;SDS011;8444;52.012;5.048;2022-07-03T15:05:28;4.93;;;1.20;;
16660;SDS011;8444;52.012;5.048;2022-07-03T15:10:31;2.28;;;0.90;;
16660;SDS011;8444;52.012;5.048;2022-07-03T15:12:56;3.47;;;1.77;;
16660;SDS011;8444;52.012;5.048;2022-07-03T15:15:22;3.60;;;1.17;;
16660;SDS011;8444;52.012;5.048;2022-07-03T15:17:49;1.95;;;0.57;;
16660;SDS011;8444;52.012;5.048;2022-07-03T15:20:14;2.10;;;1.08;;
16660;SDS011;8444;52.012;5.048;2022-07-03T15:22:42;4.10;;;1.00;;
16660;SDS011;8444;52.012;5.048;2022-07-03T15:25:11;2.15;;;0.85;;
16660;SDS011;8444;52.012;5.048;2022-07-03T15:27:36;3.90;;;2.20;;
16660;SDS011;8444;52.012;5.048;2022-07-03T15:30:02;2.92;;;1.27;;
16660;SDS011;8444;52.012;5.048;2022-07-03T15:32:28;2.25;;;1.23;;
16660;SDS011;8444;52.012;5.048;2022-07-03T15:34:53;1.40;;;0.77;;
16660;SDS011;8444;52.012;5.048;2022-07-03T15:49:28;1.27;;;0.50;;
16660;SDS011;8444;52.012;5.048;2022-07-03T15:54:44;1.85;;;0.73;;
16660;SDS011;8444;52.012;5.048;2022-07-03T15:57:14;2.25;;;0.80;;
16660;SDS011;8444;52.012;5.048;2022-07-03T15:59:42;1.30;;;0.65;;
16660;SDS011;8444;52.012;5.048;2022-07-03T16:02:12;1.73;;;1.00;;
16660;SDS011;8444;52.012;5.048;2022-07-03T16:07:10;3.70;;;1.27;;
16660;SDS011;8444;52.012;5.048;2022-07-03T16:09:36;2.67;;;0.70;;
16660;SDS011;8444;52.012;5.048;2022-07-03T16:12:01;2.03;;;0.90;;